sensor_id;sensor_type;location;lat;lon;timestamp;P1;durP1;ratioP1;P2;durP2;ratioP2
51491;SDS011;37569;50.548;8.778;2022-12-24T00:00:34;10.3;;;2.5;;
51491;SDS011;37569;50.548;8.778;2022-12-24T00:05:36;11.6;;;2.6;;
51491;SDS011;37569;50.548;8.778;2022-12-24T00:10:34;7.5;;;2.4;;
51491;SDS011;37569;50.548;8.778;2022-12-24T00:15:35;9.8;;;2.4;;
51491;SDS011;37569;50.548;8.778;2022-12-24T00:20:35;8.7;;;2.3;;
51491;SDS011;37569;50.548;8.778;2022-12-24T00:30:36;9.3;;;2.3;;
51491;SDS011;37569;50.548;8.778;2022-12-24T00:35:36;8.8;;;2.5;;
51491;SDS011;37569;50.548;8.778;2022-12-24T00:40:37;11.1;;;2.4;;
51491;SDS011;37569;50.548;8.778;2022-12-24T00:45:37;7.1;;;2.1;;
51491;SDS011;37569;50.548;8.778;2022-12-24T00:50:37;10.5;;;2.3;;
51491;SDS011;37569;50.548;8.778;2022-12-24T00:55:38;9.5;;;2.2;;
51491;SDS011;37569;50.548;8.778;2022-12-24T01:00:38;8.4;;;2.1;;
51491;SDS011;37569;50.548;8.778;2022-12-24T01:05:39;6.5;;;2.2;;
51491;SDS011;37569;50.548;8.778;2022-12-24T01:10:39;10.5;;;2.1;;
51491;SDS011;37569;50.548;8.778;2022-12-24T01:15:40;10.3;;;2.4;;
51491;SDS011;37569;50.548;8.778;2022-12-24T01:20:40;8.6;;;2.1;;
51491;SDS011;37569;50.548;8.778;2022-12-24T01:25:42;7.8;;;1.9;;
51491;SDS011;37569;50.548;8.778;2022-12-24T01:30:41;9;;;2.2;;
51491;SDS011;37569;50.548;8.778;2022-12-24T01:35:41;8.6;;;2.3;;
51491;SDS011;37569;50.548;8.778;2022-12-24T01:40:41;9.6;;;2.4;;
51491;SDS011;37569;50.548;8.778;2022-12-24T01:45:44;9.2;;;2.5;;
51491;SDS011;37569;50.548;8.778;2022-12-24T01:50:42;8.6;;;2.4;;
51491;SDS011;37569;50.548;8.778;2022-12-24T01:55:43;9.9;;;2.4;;
51491;SDS011;37569;50.548;8.778;2022-12-24T02:00:43;6.9;;;2.2;;
51491;SDS011;37569;50.548;8.778;2022-12-24T02:05:45;7.9;;;2.4;;
51491;SDS011;37569;50.548;8.778;2022-12-24T02:10:44;12.4;;;2.7;;
51491;SDS011;37569;50.548;8.778;2022-12-24T02:15:49;12.1;;;3;;
51491;SDS011;37569;50.548;8.778;2022-12-24T02:20:49;8.4;;;2.4;;
51491;SDS011;37569;50.548;8.778;2022-12-24T02:25:54;10.9;;;2.6;;
51491;SDS011;37569;50.548;8.778;2022-12-24T02:30:46;11.7;;;2.8;;
51491;SDS011;37569;50.548;8.778;2022-12-24T02:35:48;10.9;;;2.6;;
51491;SDS011;37569;50.548;8.778;2022-12-24T02:40:47;10.9;;;2.4;;
51491;SDS011;37569;50.548;8.778;2022-12-24T02:45:48;11.3;;;3.4;;
51491;SDS011;37569;50.548;8.778;2022-12-24T02:51:03;11.4;;;2.6;;
51491;SDS011;37569;50.548;8.778;2022-12-24T02:55:49;10.4;;;2.9;;
51491;SDS011;37569;50.548;8.778;2022-12-24T03:00:48;10;;;2.4;;
51491;SDS011;37569;50.548;8.778;2022-12-24T03:05:48;10.1;;;2.5;;
51491;SDS011;37569;50.548;8.778;2022-12-24T03:10:51;12.6;;;2.8;;
51491;SDS011;37569;50.548;8.778;2022-12-24T03:15:49;10.8;;;2.4;;
51491;SDS011;37569;50.548;8.778;2022-12-24T03:20:50;11;;;2.5;;
51491;SDS011;37569;50.548;8.778;2022-12-24T03:25:49;12.1;;;2.8;;
51491;SDS011;37569;50.548;8.778;2022-12-24T03:30:50;12.3;;;2.7;;
51491;SDS011;37569;50.548;8.778;2022-12-24T03:35:50;11.3;;;2.6;;
51491;SDS011;37569;50.548;8.778;2022-12-24T03:40:50;9.2;;;2.3;;
51491;SDS011;37569;50.548;8.778;2022-12-24T03:45:51;12.5;;;2.5;;
51491;SDS011;37569;50.548;8.778;2022-12-24T03:50:51;11.5;;;2.6;;
51491;SDS011;37569;50.548;8.778;2022-12-24T03:55:51;11.6;;;2.7;;
51491;SDS011;37569;50.548;8.778;2022-12-24T04:00:52;16.2;;;2.8;;
51491;SDS011;37569;50.548;8.778;2022-12-24T04:05:59;9.7;;;2.8;;
51491;SDS011;37569;50.548;8.778;2022-12-24T04:10:53;11.9;;;3;;
51491;SDS011;37569;50.548;8.778;2022-12-24T04:15:57;13.6;;;2.8;;
51491;SDS011;37569;50.548;8.778;2022-12-24T04:20:53;12.1;;;3.5;;
51491;SDS011;37569;50.548;8.778;2022-12-24T04:25:54;12.1;;;3;;
51491;SDS011;37569;50.548;8.778;2022-12-24T04:30:56;11.6;;;2.8;;
51491;SDS011;37569;50.548;8.778;2022-12-24T04:35:55;10.9;;;2.9;;
51491;SDS011;37569;50.548;8.778;2022-12-24T04:40:57;14;;;3.4;;
51491;SDS011;37569;50.548;8.778;2022-12-24T04:45:55;13.3;;;3.1;;
51491;SDS011;37569;50.548;8.778;2022-12-24T04:50:56;15;;;3.1;;
51491;SDS011;37569;50.548;8.778;2022-12-24T04:55:56;11.6;;;2.7;;
51491;SDS011;37569;50.548;8.778;2022-12-24T05:00:56;14.2;;;2.9;;
51491;SDS011;37569;50.548;8.778;2022-12-24T05:05:59;10.6;;;2.9;;
51491;SDS011;37569;50.548;8.778;2022-12-24T05:10:57;13.7;;;3.1;;
51491;SDS011;37569;50.548;8.778;2022-12-24T05:15:58;11.4;;;2.8;;
51491;SDS011;37569;50.548;8.778;2022-12-24T05:20:58;12.4;;;2.9;;
51491;SDS011;37569;50.548;8.778;2022-12-24T05:25:58;11.9;;;2.9;;
51491;SDS011;37569;50.548;8.778;2022-12-24T05:30:58;10.5;;;2.7;;
51491;SDS011;37569;50.548;8.778;2022-12-24T05:35:59;10;;;2.8;;
51491;SDS011;37569;50.548;8.778;2022-12-24T05:40:59;15.2;;;3.1;;
51491;SDS011;37569;50.548;8.778;2022-12-24T05:46:00;9.8;;;2.7;;
51491;SDS011;37569;50.548;8.778;2022-12-24T05:51:02;10.8;;;3.2;;
51491;SDS011;37569;50.548;8.778;2022-12-24T05:56:02;11.8;;;3;;
51491;SDS011;37569;50.548;8.778;2022-12-24T06:01:01;10.8;;;2.9;;
51491;SDS011;37569;50.548;8.778;2022-12-24T06:06:02;13;;;3.2;;
51491;SDS011;37569;50.548;8.778;2022-12-24T06:11:02;14.1;;;3.5;;
51491;SDS011;37569;50.548;8.778;2022-12-24T06:16:03;13.7;;;3;;
51491;SDS011;37569;50.548;8.778;2022-12-24T06:21:03;9.5;;;3.6;;
51491;SDS011;37569;50.548;8.778;2022-12-24T06:26:03;16.4;;;3.6;;
51491;SDS011;37569;50.548;8.778;2022-12-24T06:31:04;9.5;;;2;;
51491;SDS011;37569;50.548;8.778;2022-12-24T06:36:04;5;;;1.7;;
51491;SDS011;37569;50.548;8.778;2022-12-24T06:41:04;5.2;;;1.5;;
51491;SDS011;37569;50.548;8.778;2022-12-24T06:46:04;4.9;;;1.3;;
51491;SDS011;37569;50.548;8.778;2022-12-24T06:51:04;5.6;;;1.5;;
51491;SDS011;37569;50.548;8.778;2022-12-24T06:56:06;6.3;;;1.7;;
51491;SDS011;37569;50.548;8.778;2022-12-24T07:01:05;4.7;;;1.4;;
51491;SDS011;37569;50.548;8.778;2022-12-24T07:06:05;5.2;;;1.5;;
51491;SDS011;37569;50.548;8.778;2022-12-24T07:11:05;4;;;1.7;;
51491;SDS011;37569;50.548;8.778;2022-12-24T07:16:06;4.8;;;1.7;;
51491;SDS011;37569;50.548;8.778;2022-12-24T07:21:06;5.2;;;1.8;;
51491;SDS011;37569;50.548;8.778;2022-12-24T07:26:06;7.4;;;2.3;;
51491;SDS011;37569;50.548;8.778;2022-12-24T07:31:07;6.2;;;1.9;;
51491;SDS011;37569;50.548;8.778;2022-12-24T07:36:08;9.1;;;2.5;;
51491;SDS011;37569;50.548;8.778;2022-12-24T07:41:07;9.5;;;2.5;;
51491;SDS011;37569;50.548;8.778;2022-12-24T07:46:08;11.7;;;2.9;;
51491;SDS011;37569;50.548;8.778;2022-12-24T07:51:08;9.9;;;2.6;;
51491;SDS011;37569;50.548;8.778;2022-12-24T07:56:08;13.7;;;3;;
51491;SDS011;37569;50.548;8.778;2022-12-24T08:01:08;13.9;;;3.1;;
51491;SDS011;37569;50.548;8.778;2022-12-24T08:06:09;9.7;;;2.7;;
51491;SDS011;37569;50.548;8.778;2022-12-24T08:11:09;13.6;;;3.1;;
51491;SDS011;37569;50.548;8.778;2022-12-24T08:16:09;11.2;;;2.5;;
51491;SDS011;37569;50.548;8.778;2022-12-24T08:21:10;10.1;;;2.7;;
51491;SDS011;37569;50.548;8.778;2022-12-24T08:26:10;11.6;;;2.9;;
51491;SDS011;37569;50.548;8.778;2022-12-24T08:31:10;14.1;;;5.7;;
51491;SDS011;37569;50.548;8.778;2022-12-24T08:36:11;14.9;;;3.3;;
51491;SDS011;37569;50.548;8.778;2022-12-24T08:41:11;13.5;;;3.2;;
51491;SDS011;37569;50.548;8.778;2022-12-24T08:46:11;13.5;;;3;;
51491;SDS011;37569;50.548;8.778;2022-12-24T08:51:12;15.1;;;3;;
51491;SDS011;37569;50.548;8.778;2022-12-24T08:56:12;9.8;;;2.8;;
51491;SDS011;37569;50.548;8.778;2022-12-24T09:01:13;14.3;;;3.1;;
51491;SDS011;37569;50.548;8.778;2022-12-24T09:06:12;11.8;;;3.5;;
51491;SDS011;37569;50.548;8.778;2022-12-24T09:11:14;19.3;;;8.4;;
51491;SDS011;37569;50.548;8.778;2022-12-24T09:16:13;18.2;;;4.3;;
51491;SDS011;37569;50.548;8.778;2022-12-24T09:21:14;13.6;;;3.7;;
51491;SDS011;37569;50.548;8.778;2022-12-24T09:26:17;11;;;3.5;;
51491;SDS011;37569;50.548;8.778;2022-12-24T09:31:14;15.2;;;7.3;;
51491;SDS011;37569;50.548;8.778;2022-12-24T09:36:14;11.1;;;4.4;;
51491;SDS011;37569;50.548;8.778;2022-12-24T09:41:19;14.1;;;4.2;;
51491;SDS011;37569;50.548;8.778;2022-12-24T09:46:16;13.4;;;3.7;;
51491;SDS011;37569;50.548;8.778;2022-12-24T09:51:18;13.7;;;3.9;;
51491;SDS011;37569;50.548;8.778;2022-12-24T09:56:16;13.2;;;3.9;;
51491;SDS011;37569;50.548;8.778;2022-12-24T10:01:16;17.1;;;3.6;;
51491;SDS011;37569;50.548;8.778;2022-12-24T10:06:17;12.8;;;3.5;;
51491;SDS011;37569;50.548;8.778;2022-12-24T10:11:18;14.2;;;3.4;;
51491;SDS011;37569;50.548;8.778;2022-12-24T10:16:18;15.4;;;3.4;;
51491;SDS011;37569;50.548;8.778;2022-12-24T10:21:20;14.5;;;3.1;;
51491;SDS011;37569;50.548;8.778;2022-12-24T10:26:21;10.6;;;2.9;;
51491;SDS011;37569;50.548;8.778;2022-12-24T10:31:18;9.9;;;3;;
51491;SDS011;37569;50.548;8.778;2022-12-24T10:36:19;12.8;;;2.8;;
51491;SDS011;37569;50.548;8.778;2022-12-24T10:41:19;8.5;;;2.7;;
51491;SDS011;37569;50.548;8.778;2022-12-24T10:46:20;11.3;;;2.7;;
51491;SDS011;37569;50.548;8.778;2022-12-24T10:51:21;10.2;;;2.9;;
51491;SDS011;37569;50.548;8.778;2022-12-24T10:56:20;11.6;;;2.9;;
51491;SDS011;37569;50.548;8.778;2022-12-24T11:06:21;12.3;;;2.8;;
51491;SDS011;37569;50.548;8.778;2022-12-24T11:11:22;11.3;;;2.8;;
51491;SDS011;37569;50.548;8.778;2022-12-24T11:16:24;13.9;;;3.5;;
51491;SDS011;37569;50.548;8.778;2022-12-24T11:21:23;12;;;3;;
51491;SDS011;37569;50.548;8.778;2022-12-24T11:26:24;8.9;;;2.6;;
51491;SDS011;37569;50.548;8.778;2022-12-24T11:31:23;10.9;;;2.6;;
51491;SDS011;37569;50.548;8.778;2022-12-24T11:36:24;9.7;;;2.9;;
51491;SDS011;37569;50.548;8.778;2022-12-24T11:41:24;11.9;;;3.1;;
51491;SDS011;37569;50.548;8.778;2022-12-24T11:46:41;11.7;;;3.1;;
51491;SDS011;37569;50.548;8.778;2022-12-24T11:51:26;11.4;;;2.8;;
51491;SDS011;37569;50.548;8.778;2022-12-24T11:56:29;13;;;2.9;;
51491;SDS011;37569;50.548;8.778;2022-12-24T12:01:29;11.7;;;3.2;;
51491;SDS011;37569;50.548;8.778;2022-12-24T12:06:27;13;;;3.1;;
51491;SDS011;37569;50.548;8.778;2022-12-24T12:11:27;12.4;;;2.7;;
51491;SDS011;37569;50.548;8.778;2022-12-24T12:16:28;9.7;;;2.8;;
51491;SDS011;37569;50.548;8.778;2022-12-24T12:21:29;9.5;;;2.7;;
51491;SDS011;37569;50.548;8.778;2022-12-24T12:26:28;8.8;;;2.4;;
51491;SDS011;37569;50.548;8.778;2022-12-24T12:31:31;11.8;;;3.3;;
51491;SDS011;37569;50.548;8.778;2022-12-24T12:36:31;10.4;;;3.5;;
51491;SDS011;37569;50.548;8.778;2022-12-24T12:41:33;11.7;;;4.2;;
51491;SDS011;37569;50.548;8.778;2022-12-24T12:46:33;10.4;;;4.1;;
51491;SDS011;37569;50.548;8.778;2022-12-24T12:51:32;12.6;;;4.7;;
51491;SDS011;37569;50.548;8.778;2022-12-24T12:56:31;12.9;;;4.3;;
51491;SDS011;37569;50.548;8.778;2022-12-24T13:01:35;14.5;;;4.1;;
51491;SDS011;37569;50.548;8.778;2022-12-24T13:06:35;9.4;;;3.1;;
51491;SDS011;37569;50.548;8.778;2022-12-24T13:11:37;12.3;;;4.4;;
51491;SDS011;37569;50.548;8.778;2022-12-24T13:17:09;11.9;;;3.4;;
51491;SDS011;37569;50.548;8.778;2022-12-24T13:21:33;9.6;;;3;;
51491;SDS011;37569;50.548;8.778;2022-12-24T13:26:34;13;;;3.3;;
51491;SDS011;37569;50.548;8.778;2022-12-24T13:31:34;11.1;;;3.2;;
51491;SDS011;37569;50.548;8.778;2022-12-24T13:37:17;17.4;;;5.1;;
51491;SDS011;37569;50.548;8.778;2022-12-24T13:41:36;15.1;;;4.1;;
51491;SDS011;37569;50.548;8.778;2022-12-24T13:46:52;13.3;;;4.1;;
51491;SDS011;37569;50.548;8.778;2022-12-24T13:51:36;9.5;;;2.9;;
51491;SDS011;37569;50.548;8.778;2022-12-24T13:56:36;12.6;;;2.7;;
51491;SDS011;37569;50.548;8.778;2022-12-24T14:01:37;11.1;;;3;;
51491;SDS011;37569;50.548;8.778;2022-12-24T14:06:38;14.1;;;3.7;;
51491;SDS011;37569;50.548;8.778;2022-12-24T14:12:12;9.9;;;2.5;;
51491;SDS011;37569;50.548;8.778;2022-12-24T14:16:54;9.3;;;3.2;;
51491;SDS011;37569;50.548;8.778;2022-12-24T14:21:41;10.5;;;3;;
51491;SDS011;37569;50.548;8.778;2022-12-24T14:26:43;13.1;;;3.6;;
51491;SDS011;37569;50.548;8.778;2022-12-24T14:31:48;12.9;;;3.4;;
51491;SDS011;37569;50.548;8.778;2022-12-24T14:36:40;11.9;;;3.3;;
51491;SDS011;37569;50.548;8.778;2022-12-24T14:41:43;12.3;;;3.5;;
51491;SDS011;37569;50.548;8.778;2022-12-24T14:46:41;11;;;3.2;;
51491;SDS011;37569;50.548;8.778;2022-12-24T14:51:42;11.7;;;2.9;;
51491;SDS011;37569;50.548;8.778;2022-12-24T14:56:42;11.1;;;2.7;;
51491;SDS011;37569;50.548;8.778;2022-12-24T15:01:42;11.2;;;2.6;;
51491;SDS011;37569;50.548;8.778;2022-12-24T15:06:43;10;;;3.3;;
51491;SDS011;37569;50.548;8.778;2022-12-24T15:11:43;10;;;3;;
51491;SDS011;37569;50.548;8.778;2022-12-24T15:16:47;11.9;;;3.2;;
51491;SDS011;37569;50.548;8.778;2022-12-24T15:21:44;9.4;;;2.5;;
51491;SDS011;37569;50.548;8.778;2022-12-24T15:26:44;10;;;3.1;;
51491;SDS011;37569;50.548;8.778;2022-12-24T15:31:44;11.3;;;3.3;;
51491;SDS011;37569;50.548;8.778;2022-12-24T15:36:45;10.8;;;3.1;;
51491;SDS011;37569;50.548;8.778;2022-12-24T15:41:45;12.1;;;3.4;;
51491;SDS011;37569;50.548;8.778;2022-12-24T15:46:45;10.5;;;3.1;;
51491;SDS011;37569;50.548;8.778;2022-12-24T15:51:46;11.9;;;3.9;;
51491;SDS011;37569;50.548;8.778;2022-12-24T15:56:46;12.7;;;4.1;;
51491;SDS011;37569;50.548;8.778;2022-12-24T16:01:47;16.8;;;8.2;;
51491;SDS011;37569;50.548;8.778;2022-12-24T16:06:51;34.4;;;17;;
51491;SDS011;37569;50.548;8.778;2022-12-24T16:11:47;27.7;;;13.7;;
51491;SDS011;37569;50.548;8.778;2022-12-24T16:16:48;21.4;;;10.2;;
51491;SDS011;37569;50.548;8.778;2022-12-24T16:21:49;28.4;;;13.6;;
51491;SDS011;37569;50.548;8.778;2022-12-24T16:26:49;21.9;;;8.8;;
51491;SDS011;37569;50.548;8.778;2022-12-24T16:31:49;17.2;;;8.3;;
51491;SDS011;37569;50.548;8.778;2022-12-24T16:36:49;23.9;;;12;;
51491;SDS011;37569;50.548;8.778;2022-12-24T16:41:50;13.4;;;7.1;;
51491;SDS011;37569;50.548;8.778;2022-12-24T16:46:50;18.1;;;7.8;;
51491;SDS011;37569;50.548;8.778;2022-12-24T16:51:50;13.1;;;6.4;;
51491;SDS011;37569;50.548;8.778;2022-12-24T16:56:51;21.7;;;11.9;;
51491;SDS011;37569;50.548;8.778;2022-12-24T17:01:51;23.6;;;13.6;;
51491;SDS011;37569;50.548;8.778;2022-12-24T17:06:51;21;;;11.6;;
51491;SDS011;37569;50.548;8.778;2022-12-24T17:11:52;16.4;;;6.7;;
51491;SDS011;37569;50.548;8.778;2022-12-24T17:16:52;14.6;;;4.9;;
51491;SDS011;37569;50.548;8.778;2022-12-24T17:21:52;16.2;;;5.5;;
51491;SDS011;37569;50.548;8.778;2022-12-24T17:26:53;19.1;;;8.9;;
51491;SDS011;37569;50.548;8.778;2022-12-24T17:31:53;16.1;;;7.1;;
51491;SDS011;37569;50.548;8.778;2022-12-24T17:36:53;23.1;;;11.4;;
51491;SDS011;37569;50.548;8.778;2022-12-24T17:41:53;33;;;17.9;;
51491;SDS011;37569;50.548;8.778;2022-12-24T17:46:54;29;;;14.5;;
51491;SDS011;37569;50.548;8.778;2022-12-24T17:51:54;26.1;;;15.1;;
51491;SDS011;37569;50.548;8.778;2022-12-24T17:56:54;19.7;;;9.4;;
51491;SDS011;37569;50.548;8.778;2022-12-24T18:01:55;15.9;;;6.5;;
51491;SDS011;37569;50.548;8.778;2022-12-24T18:06:55;14;;;5.1;;
51491;SDS011;37569;50.548;8.778;2022-12-24T18:11:55;17.3;;;6.4;;
51491;SDS011;37569;50.548;8.778;2022-12-24T18:16:55;19.1;;;6.2;;
51491;SDS011;37569;50.548;8.778;2022-12-24T18:21:56;20.9;;;5.9;;
51491;SDS011;37569;50.548;8.778;2022-12-24T18:26:56;17.5;;;7.8;;
51491;SDS011;37569;50.548;8.778;2022-12-24T18:31:56;16.8;;;8.8;;
51491;SDS011;37569;50.548;8.778;2022-12-24T18:36:57;22.8;;;9.3;;
51491;SDS011;37569;50.548;8.778;2022-12-24T18:41:57;23.5;;;9.4;;
51491;SDS011;37569;50.548;8.778;2022-12-24T18:46:57;24.8;;;10.5;;
51491;SDS011;37569;50.548;8.778;2022-12-24T18:51:58;28.3;;;11;;
51491;SDS011;37569;50.548;8.778;2022-12-24T18:56:58;25.4;;;10.3;;
51491;SDS011;37569;50.548;8.778;2022-12-24T19:01:58;26.5;;;11.7;;
51491;SDS011;37569;50.548;8.778;2022-12-24T19:06:58;20.2;;;10.7;;
51491;SDS011;37569;50.548;8.778;2022-12-24T19:11:59;25.1;;;10.7;;
51491;SDS011;37569;50.548;8.778;2022-12-24T19:16:59;29.6;;;11.4;;
51491;SDS011;37569;50.548;8.778;2022-12-24T19:21:59;38.2;;;18.5;;
51491;SDS011;37569;50.548;8.778;2022-12-24T19:27:00;42.9;;;22.2;;
51491;SDS011;37569;50.548;8.778;2022-12-24T19:32:00;151.4;;;62.8;;
51491;SDS011;37569;50.548;8.778;2022-12-24T19:37:00;54.3;;;27.4;;
51491;SDS011;37569;50.548;8.778;2022-12-24T19:42:01;144.7;;;63.3;;
51491;SDS011;37569;50.548;8.778;2022-12-24T19:47:01;82.6;;;41.9;;
51491;SDS011;37569;50.548;8.778;2022-12-24T19:52:01;63.3;;;34.2;;
51491;SDS011;37569;50.548;8.778;2022-12-24T19:57:02;67.6;;;34.1;;
51491;SDS011;37569;50.548;8.778;2022-12-24T20:02:02;52.7;;;27.1;;
51491;SDS011;37569;50.548;8.778;2022-12-24T20:07:02;50.8;;;29.3;;
51491;SDS011;37569;50.548;8.778;2022-12-24T20:12:02;59.6;;;32.7;;
51491;SDS011;37569;50.548;8.778;2022-12-24T20:17:03;56.6;;;26.2;;
51491;SDS011;37569;50.548;8.778;2022-12-24T20:22:03;48.9;;;22.7;;
51491;SDS011;37569;50.548;8.778;2022-12-24T20:27:03;50.5;;;23.3;;
51491;SDS011;37569;50.548;8.778;2022-12-24T20:32:04;57.8;;;23.5;;
51491;SDS011;37569;50.548;8.778;2022-12-24T20:37:04;74.1;;;25.2;;
51491;SDS011;37569;50.548;8.778;2022-12-24T20:42:04;82.4;;;23.7;;
51491;SDS011;37569;50.548;8.778;2022-12-24T20:47:04;137.6;;;29;;
51491;SDS011;37569;50.548;8.778;2022-12-24T20:52:05;69.6;;;29.1;;
51491;SDS011;37569;50.548;8.778;2022-12-24T20:57:05;103.2;;;41.2;;
51491;SDS011;37569;50.548;8.778;2022-12-24T21:02:05;67.6;;;33.3;;
51491;SDS011;37569;50.548;8.778;2022-12-24T21:07:06;65.3;;;28.2;;
51491;SDS011;37569;50.548;8.778;2022-12-24T21:12:07;33.3;;;19;;
51491;SDS011;37569;50.548;8.778;2022-12-24T21:17:06;28.6;;;17.5;;
51491;SDS011;37569;50.548;8.778;2022-12-24T21:22:06;32;;;14.5;;
51491;SDS011;37569;50.548;8.778;2022-12-24T21:27:07;27.1;;;14.3;;
51491;SDS011;37569;50.548;8.778;2022-12-24T21:32:07;48.9;;;15.4;;
51491;SDS011;37569;50.548;8.778;2022-12-24T21:37:07;57.3;;;13.7;;
51491;SDS011;37569;50.548;8.778;2022-12-24T21:42:08;32.1;;;13.1;;
51491;SDS011;37569;50.548;8.778;2022-12-24T21:47:08;23.1;;;11.6;;
51491;SDS011;37569;50.548;8.778;2022-12-24T21:52:08;52;;;15;;
51491;SDS011;37569;50.548;8.778;2022-12-24T21:57:08;74.2;;;18.9;;
51491;SDS011;37569;50.548;8.778;2022-12-24T22:02:09;26.9;;;18.7;;
51491;SDS011;37569;50.548;8.778;2022-12-24T22:07:13;37.6;;;23.4;;
51491;SDS011;37569;50.548;8.778;2022-12-24T22:12:09;25.7;;;17.6;;
51491;SDS011;37569;50.548;8.778;2022-12-24T22:17:09;93.5;;;34.1;;
51491;SDS011;37569;50.548;8.778;2022-12-24T22:22:10;50.1;;;17.6;;
51491;SDS011;37569;50.548;8.778;2022-12-24T22:27:10;107.4;;;20.5;;
51491;SDS011;37569;50.548;8.778;2022-12-24T22:32:10;55.9;;;16.7;;
51491;SDS011;37569;50.548;8.778;2022-12-24T22:37:11;57.4;;;22.2;;
51491;SDS011;37569;50.548;8.778;2022-12-24T22:42:11;39.1;;;19.6;;
51491;SDS011;37569;50.548;8.778;2022-12-24T22:47:11;92;;;28.6;;
51491;SDS011;37569;50.548;8.778;2022-12-24T22:52:11;50.1;;;21.4;;
51491;SDS011;37569;50.548;8.778;2022-12-24T22:57:12;83.7;;;23.7;;
51491;SDS011;37569;50.548;8.778;2022-12-24T23:02:12;67.2;;;19;;
51491;SDS011;37569;50.548;8.778;2022-12-24T23:07:12;53.9;;;17.1;;
51491;SDS011;37569;50.548;8.778;2022-12-24T23:12:12;50.2;;;22.6;;
51491;SDS011;37569;50.548;8.778;2022-12-24T23:17:13;182;;;21.5;;
51491;SDS011;37569;50.548;8.778;2022-12-24T23:22:13;293.5;;;27.3;;
51491;SDS011;37569;50.548;8.778;2022-12-24T23:27:13;281.2;;;23.7;;
51491;SDS011;37569;50.548;8.778;2022-12-24T23:32:14;51.9;;;17.8;;
51491;SDS011;37569;50.548;8.778;2022-12-24T23:37:14;74.5;;;19.8;;
51491;SDS011;37569;50.548;8.778;2022-12-24T23:42:14;71.6;;;19.3;;
51491;SDS011;37569;50.548;8.778;2022-12-24T23:47:15;73;;;21.3;;
51491;SDS011;37569;50.548;8.778;2022-12-24T23:52:15;74.5;;;21.9;;
51491;SDS011;37569;50.548;8.778;2022-12-24T23:57:15;89.4;;;25.1;;
